Itambacuri, Brazil
Current Conditions -  °F | °C
As of 10:00 PM on Sunday 23 Nov 2014 (Local Time) from SBMK Reporting Station
Clear Clear  
Wind Chill: 77°   Ceiling: Unl
Heat Index: 79°   Visibility: 6mi
Dew Point: 66°   Wind: 3mph
Humidity: 69%   Direction: 190°S
Pressure: 29.97"   Gusts: NA
Location:  18.03°S, 41.68°W
Report Text: SBMK 240000Z 19003KT CAVOK 25/19 Q1015
Loading
Personal Weather Stations






























Interactive Weather Map New forecast layout! Learn more

10-Day Weather Forecast

Advertisements
Track Severe Weather on mobile